createdAt,value
2023-04-23T00:01:06.000Z,0
2023-04-23T00:02:20.000Z,0
2023-04-23T00:03:35.000Z,0
2023-04-23T00:04:49.000Z,0
2023-04-23T00:06:04.000Z,0
2023-04-23T00:07:18.614Z,0
2023-04-23T00:08:33.077Z,0
2023-04-23T00:09:46.000Z,0
2023-04-23T00:11:01.153Z,0
2023-04-23T00:12:15.000Z,0
2023-04-23T00:13:30.000Z,0
2023-04-23T00:14:43.884Z,0
2023-04-23T00:15:58.000Z,0
2023-04-23T00:17:12.000Z,0
2023-04-23T00:18:27.000Z,0
2023-04-23T00:19:41.000Z,0
2023-04-23T00:20:56.000Z,0
2023-04-23T00:22:10.000Z,0
2023-04-23T00:23:24.090Z,0
2023-04-23T00:24:37.000Z,0
2023-04-23T00:27:06.000Z,0
2023-04-23T00:28:21.000Z,0
2023-04-23T00:29:35.565Z,0
2023-04-23T00:30:50.000Z,0
2023-04-23T00:32:04.000Z,0
2023-04-23T00:33:18.000Z,0
2023-04-23T00:34:33.000Z,0
2023-04-23T00:35:47.889Z,0
2023-04-23T00:37:02.356Z,0
2023-04-23T00:38:16.000Z,0
2023-04-23T00:39:31.483Z,0
2023-04-23T00:40:45.000Z,0
2023-04-23T00:41:59.000Z,0
2023-04-23T00:43:13.000Z,0
2023-04-23T00:44:28.000Z,0
2023-04-23T00:45:42.000Z,0
2023-04-23T00:46:57.000Z,0
2023-04-23T00:48:11.000Z,0
2023-04-23T00:49:26.000Z,0
2023-04-23T00:50:40.000Z,0
2023-04-23T00:51:55.000Z,0
2023-04-23T00:53:09.000Z,0
2023-04-23T00:54:23.000Z,0
2023-04-23T00:55:38.000Z,0
2023-04-23T00:56:52.000Z,0
2023-04-23T00:58:06.000Z,0
2023-04-23T00:59:20.000Z,0
2023-04-23T01:00:35.000Z,0
2023-04-23T01:01:49.000Z,0
2023-04-23T01:03:04.000Z,0
2023-04-23T01:04:19.072Z,0
2023-04-23T01:05:33.348Z,0
2023-04-23T01:06:47.000Z,0
2023-04-23T01:08:02.000Z,0
2023-04-23T01:09:16.000Z,0
2023-04-23T01:10:31.000Z,0
2023-04-23T01:11:45.000Z,0
2023-04-23T01:13:00.000Z,0
2023-04-23T01:14:14.000Z,0
2023-04-23T01:15:28.213Z,0
2023-04-23T01:16:42.000Z,0
2023-04-23T01:17:57.000Z,0
2023-04-23T01:19:11.000Z,0
2023-04-23T01:20:26.069Z,0
2023-04-23T01:21:40.000Z,0
2023-04-23T01:22:54.000Z,0
2023-04-23T01:24:09.000Z,0
2023-04-23T01:26:38.000Z,0
2023-04-23T01:27:52.000Z,0
2023-04-23T01:29:07.545Z,0
2023-04-23T01:31:36.000Z,0
2023-04-23T01:32:50.000Z,0
2023-04-23T01:34:05.211Z,0
2023-04-23T01:35:18.000Z,0
2023-04-23T01:36:33.000Z,0
2023-04-23T01:37:47.000Z,0
2023-04-23T01:39:02.000Z,0
2023-04-23T01:40:16.000Z,0
2023-04-23T01:41:31.000Z,0
2023-04-23T01:42:45.000Z,0
2023-04-23T01:44:00.000Z,0
2023-04-23T01:45:14.000Z,0
2023-04-23T01:46:28.000Z,0
2023-04-23T01:47:43.000Z,0
2023-04-23T01:48:57.000Z,0
2023-04-23T01:50:12.000Z,0
2023-04-23T01:51:25.000Z,0
2023-04-23T01:52:40.000Z,0
2023-04-23T01:53:54.000Z,0
2023-04-23T01:55:09.000Z,0
2023-04-23T01:56:23.000Z,0
2023-04-23T01:57:38.000Z,0
2023-04-23T01:58:52.000Z,0
2023-04-23T02:00:07.000Z,0
2023-04-23T02:01:21.000Z,0
2023-04-23T02:02:36.211Z,0
2023-04-23T02:03:50.000Z,0
2023-04-23T02:06:19.000Z,0
2023-04-23T02:07:34.000Z,0
2023-04-23T02:08:47.000Z,0
2023-04-23T02:10:02.081Z,0
2023-04-23T02:11:16.000Z,0
2023-04-23T02:12:31.000Z,0
2023-04-23T02:13:45.000Z,0
2023-04-23T02:14:59.954Z,0
2023-04-23T02:16:14.000Z,0
2023-04-23T02:17:28.000Z,0
2023-04-23T02:18:43.000Z,0
2023-04-23T02:21:12.000Z,0
2023-04-23T02:22:26.000Z,0
2023-04-23T02:23:41.000Z,0
2023-04-23T02:24:54.000Z,0
2023-04-23T02:26:09.000Z,0
2023-04-23T02:27:23.000Z,0
2023-04-23T02:28:38.000Z,0
2023-04-23T02:31:06.000Z,0
2023-04-23T02:32:20.000Z,0
2023-04-23T02:33:34.000Z,0
2023-04-23T02:34:48.789Z,0
2023-04-23T02:36:03.000Z,0
2023-04-23T02:37:17.000Z,0
2023-04-23T02:38:32.000Z,0
2023-04-23T02:39:46.000Z,0
2023-04-23T02:41:01.119Z,0
2023-04-23T02:42:15.000Z,0
2023-04-23T02:43:30.000Z,0
2023-04-23T02:45:59.000Z,0
2023-04-23T02:47:13.000Z,0
2023-04-23T02:48:27.000Z,0
2023-04-23T02:50:56.000Z,0
2023-04-23T02:52:10.000Z,0
2023-04-23T02:53:24.000Z,0
2023-04-23T02:54:38.000Z,0
2023-04-23T02:55:53.000Z,0
2023-04-23T02:57:07.000Z,0
2023-04-23T02:58:21.000Z,0
2023-04-23T02:59:36.391Z,0
2023-04-23T03:00:50.000Z,0
2023-04-23T03:02:05.000Z,0
2023-04-23T03:03:19.000Z,0
2023-04-23T03:05:48.000Z,0
2023-04-23T03:07:03.000Z,0
2023-04-23T03:08:17.000Z,0
2023-04-23T03:09:32.139Z,0
2023-04-23T03:10:46.000Z,0
2023-04-23T03:12:01.000Z,0
2023-04-23T03:13:15.000Z,0
2023-04-23T03:15:44.000Z,0
2023-04-23T03:16:58.000Z,0
2023-04-23T03:18:11.000Z,0
2023-04-23T03:20:40.000Z,0
2023-04-23T03:21:55.000Z,0
2023-04-23T03:23:09.000Z,0
2023-04-23T03:25:38.000Z,0
2023-04-23T03:26:52.000Z,0
2023-04-23T03:28:07.000Z,0
2023-04-23T03:30:36.000Z,1
2023-04-23T03:31:50.000Z,0
2023-04-23T03:33:05.177Z,1
2023-04-23T03:35:34.000Z,1
2023-04-23T03:36:48.000Z,0
2023-04-23T03:38:02.000Z,0
2023-04-23T03:39:16.000Z,2
2023-04-23T03:40:30.000Z,1
2023-04-23T03:41:45.309Z,1
2023-04-23T03:42:59.000Z,2
2023-04-23T03:45:28.000Z,3
2023-04-23T03:46:42.000Z,6
2023-04-23T03:47:57.000Z,5
2023-04-23T03:49:11.000Z,4
2023-04-23T03:50:26.000Z,2
2023-04-23T03:51:40.000Z,8
2023-04-23T03:52:55.000Z,9
2023-04-23T03:54:08.000Z,13
2023-04-23T03:55:23.000Z,12
2023-04-23T03:56:37.000Z,13
2023-04-23T03:57:51.000Z,18
2023-04-23T03:59:06.000Z,16
2023-04-23T04:00:20.000Z,22
2023-04-23T04:01:35.000Z,22
2023-04-23T04:02:48.000Z,30
2023-04-23T04:04:02.000Z,35
2023-04-23T04:05:16.000Z,45
2023-04-23T04:06:30.000Z,45
2023-04-23T04:07:45.000Z,44
2023-04-23T04:08:59.000Z,42
2023-04-23T04:10:14.000Z,45
2023-04-23T04:11:28.000Z,49
2023-04-23T04:12:43.000Z,47
2023-04-23T04:13:57.000Z,41
2023-04-23T04:15:11.000Z,36
2023-04-23T04:16:25.000Z,37
2023-04-23T04:17:38.000Z,41
2023-04-23T04:18:53.000Z,43
2023-04-23T04:20:07.000Z,41
2023-04-23T04:21:22.000Z,42
2023-04-23T04:22:36.845Z,47
2023-04-23T04:23:51.000Z,58
2023-04-23T04:25:05.000Z,74
2023-04-23T04:26:19.000Z,80
2023-04-23T04:27:34.000Z,74
2023-04-23T04:28:48.000Z,82
2023-04-23T04:30:03.000Z,90
2023-04-23T04:31:17.000Z,101
2023-04-23T04:32:31.000Z,108
2023-04-23T04:33:45.000Z,131
2023-04-23T04:34:59.000Z,147
2023-04-23T04:36:14.000Z,157
2023-04-23T04:37:28.000Z,159
2023-04-23T04:38:43.000Z,184
2023-04-23T04:39:57.000Z,179
2023-04-23T04:41:11.000Z,171
2023-04-23T04:42:26.000Z,164
2023-04-23T04:43:40.000Z,164
2023-04-23T04:44:55.000Z,182
2023-04-23T04:46:09.000Z,206
2023-04-23T04:47:24.229Z,211
2023-04-23T04:48:38.399Z,216
2023-04-23T04:49:52.000Z,217
2023-04-23T04:51:06.000Z,207
2023-04-23T04:52:20.000Z,226
2023-04-23T04:54:49.000Z,258
2023-04-23T04:56:04.000Z,286
2023-04-23T04:57:18.000Z,304
2023-04-23T04:58:32.000Z,304
2023-04-23T04:59:47.000Z,296
2023-04-23T05:01:01.000Z,280
2023-04-23T05:02:16.000Z,260
2023-04-23T05:03:30.000Z,244
2023-04-23T05:04:44.894Z,236
2023-04-23T05:05:59.000Z,226
2023-04-23T05:07:13.972Z,214
2023-04-23T05:08:28.000Z,197
2023-04-23T05:09:41.000Z,183
2023-04-23T05:10:56.000Z,173
2023-04-23T05:12:10.000Z,160
2023-04-23T05:13:24.000Z,154
2023-04-23T05:14:39.000Z,155
2023-04-23T05:15:53.000Z,157
2023-04-23T05:17:08.000Z,169
2023-04-23T05:18:22.000Z,172
2023-04-23T05:19:37.000Z,173
2023-04-23T05:20:51.000Z,182
2023-04-23T05:22:05.000Z,185
2023-04-23T05:23:20.000Z,188
2023-04-23T05:24:34.626Z,190
2023-04-23T05:25:49.000Z,197
2023-04-23T05:27:02.000Z,206
2023-04-23T05:28:17.000Z,197
2023-04-23T05:29:31.399Z,234
2023-04-23T05:30:45.000Z,266
2023-04-23T05:32:00.229Z,322
2023-04-23T05:33:14.000Z,381
2023-04-23T05:34:29.000Z,438
2023-04-23T05:35:43.000Z,488
2023-04-23T05:36:58.125Z,522
2023-04-23T05:38:12.000Z,544
2023-04-23T05:39:26.000Z,544
2023-04-23T05:40:41.000Z,527
2023-04-23T05:41:55.000Z,526
2023-04-23T05:43:09.000Z,522
2023-04-23T05:44:23.000Z,510
2023-04-23T05:45:37.000Z,469
2023-04-23T05:46:52.000Z,433
2023-04-23T05:48:06.000Z,401
2023-04-23T05:49:21.000Z,389
2023-04-23T05:50:35.000Z,400
2023-04-23T05:51:49.000Z,415
2023-04-23T05:53:04.000Z,431
2023-04-23T05:54:18.000Z,427
2023-04-23T05:55:33.000Z,423
2023-04-23T05:58:02.000Z,491
2023-04-23T05:59:16.000Z,511
2023-04-23T06:00:30.000Z,548
2023-04-23T06:01:44.000Z,563
2023-04-23T06:02:58.000Z,509
2023-04-23T06:04:13.000Z,483
2023-04-23T06:05:27.000Z,697
2023-04-23T06:06:42.000Z,817
2023-04-23T06:07:56.000Z,813
2023-04-23T06:09:10.000Z,924
2023-04-23T06:10:25.000Z,1055
2023-04-23T06:11:39.000Z,1175
2023-04-23T06:12:54.000Z,1332
2023-04-23T06:14:08.523Z,1568
2023-04-23T06:15:22.000Z,1855
2023-04-23T06:17:51.000Z,1997
2023-04-23T06:19:06.000Z,1946
2023-04-23T06:20:20.000Z,1984
2023-04-23T06:21:35.006Z,1944
2023-04-23T06:22:49.000Z,1689
2023-04-23T06:24:03.000Z,1581
2023-04-23T06:25:18.000Z,1543
2023-04-23T06:26:32.030Z,1703
2023-04-23T06:27:46.000Z,1869
2023-04-23T06:29:00.000Z,2001
2023-04-23T06:30:15.000Z,1972
2023-04-23T06:31:29.000Z,1946
2023-04-23T06:32:43.000Z,2120
2023-04-23T06:33:58.000Z,2603
2023-04-23T06:35:12.000Z,2899
2023-04-23T06:36:27.000Z,2768
2023-04-23T06:37:41.000Z,2783
2023-04-23T06:38:55.920Z,3204
2023-04-23T06:40:10.000Z,3858
2023-04-23T06:41:24.742Z,4690
2023-04-23T06:43:53.000Z,5516
2023-04-23T06:45:07.000Z,6030
2023-04-23T06:46:21.521Z,6242
2023-04-23T06:47:35.000Z,5754
2023-04-23T06:48:50.000Z,4972
2023-04-23T06:50:04.000Z,4246
2023-04-23T06:51:19.412Z,3773
2023-04-23T06:52:33.000Z,3426
2023-04-23T06:53:48.000Z,3379
2023-04-23T06:55:02.414Z,3725
2023-04-23T06:56:16.000Z,3793
2023-04-23T06:57:31.000Z,3520
2023-04-23T06:58:45.000Z,3094
2023-04-23T07:00:00.000Z,2935
2023-04-23T07:02:28.000Z,2742
2023-04-23T07:03:42.000Z,2631
2023-04-23T07:04:56.000Z,2881
2023-04-23T07:06:11.000Z,3292
2023-04-23T07:08:40.000Z,4640
2023-04-23T07:09:54.000Z,5062
2023-04-23T07:11:09.148Z,5247
2023-04-23T07:12:23.000Z,5189
2023-04-23T07:13:37.000Z,4609
2023-04-23T07:14:52.000Z,4476
2023-04-23T07:16:06.801Z,6028
2023-04-23T07:17:20.000Z,6701
2023-04-23T07:18:35.000Z,5765
2023-04-23T07:19:48.000Z,4965
2023-04-23T07:21:03.000Z,4265
2023-04-23T07:22:17.000Z,4161
2023-04-23T07:23:32.000Z,3974
2023-04-23T07:24:46.000Z,4244
2023-04-23T07:26:01.000Z,3539
2023-04-23T07:27:15.000Z,3149
2023-04-23T07:28:29.000Z,2710
2023-04-23T07:29:44.000Z,2258
2023-04-23T07:30:58.000Z,2441
2023-04-23T07:32:13.000Z,2324
2023-04-23T07:33:27.000Z,2281
2023-04-23T07:34:41.000Z,2212
2023-04-23T07:35:56.000Z,1825
2023-04-23T07:37:10.000Z,1975
2023-04-23T07:38:24.000Z,2060
2023-04-23T07:39:38.000Z,3011
2023-04-23T07:40:53.000Z,5693
2023-04-23T07:42:07.000Z,5315
2023-04-23T07:43:21.000Z,4156
2023-04-23T07:44:36.000Z,3847
2023-04-23T07:45:50.957Z,3642
2023-04-23T07:47:05.000Z,3221
2023-04-23T07:48:19.000Z,2759
2023-04-23T07:49:33.000Z,2122
2023-04-23T07:50:48.000Z,2017
2023-04-23T07:52:02.000Z,1970
2023-04-23T07:53:17.000Z,1631
2023-04-23T07:54:30.000Z,2351
2023-04-23T07:55:45.145Z,3366
2023-04-23T07:58:13.000Z,2518
2023-04-23T07:59:28.000Z,1990
2023-04-23T08:00:42.791Z,1972
2023-04-23T08:01:57.000Z,1952
2023-04-23T08:03:11.619Z,2411
2023-04-23T08:04:26.000Z,2180
2023-04-23T08:05:40.000Z,1757
2023-04-23T08:06:54.867Z,1458
2023-04-23T08:08:09.000Z,950
2023-04-23T08:09:23.698Z,1389
2023-04-23T08:10:37.000Z,1190
2023-04-23T08:11:51.000Z,1972
2023-04-23T08:13:06.000Z,3153
2023-04-23T08:14:20.000Z,3034
2023-04-23T08:15:34.000Z,2447
2023-04-23T08:16:49.000Z,1988
2023-04-23T08:18:03.000Z,1659
2023-04-23T08:19:18.000Z,1554
2023-04-23T08:20:32.000Z,1756
2023-04-23T08:21:46.000Z,1917
2023-04-23T08:23:01.352Z,1926
2023-04-23T08:24:15.000Z,2960
2023-04-23T08:25:30.000Z,3283
2023-04-23T08:26:44.000Z,2861
2023-04-23T08:27:59.018Z,2226
2023-04-23T08:29:13.000Z,2198
2023-04-23T08:30:27.000Z,2575
2023-04-23T08:31:42.000Z,2561
2023-04-23T08:32:56.000Z,2737
2023-04-23T08:34:10.000Z,2970
2023-04-23T08:35:24.000Z,4645
2023-04-23T08:36:39.000Z,6326
2023-04-23T08:37:53.000Z,5980
2023-04-23T08:39:07.000Z,5603
2023-04-23T08:40:22.000Z,5086
2023-04-23T08:41:36.000Z,4311
2023-04-23T08:42:51.000Z,3597
2023-04-23T08:44:05.513Z,3957
2023-04-23T08:45:19.000Z,3986
2023-04-23T08:46:34.000Z,2630
2023-04-23T08:47:48.000Z,2231
2023-04-23T08:49:03.000Z,2162
2023-04-23T08:50:17.558Z,1250
2023-04-23T08:51:31.000Z,1528
2023-04-23T08:52:46.000Z,1862
2023-04-23T08:54:00.000Z,2019
2023-04-23T08:55:15.214Z,2257
2023-04-23T08:56:29.000Z,1959
2023-04-23T08:57:44.000Z,1840
2023-04-23T08:58:57.000Z,1632
2023-04-23T09:00:12.000Z,1681
2023-04-23T09:01:26.000Z,1786
2023-04-23T09:02:40.000Z,1820
2023-04-23T09:03:55.000Z,1941
2023-04-23T09:05:09.000Z,1840
2023-04-23T09:07:38.000Z,2429
2023-04-23T09:08:52.000Z,2716
2023-04-23T09:10:07.000Z,2983
2023-04-23T09:11:21.000Z,3965
2023-04-23T09:12:36.000Z,4214
2023-04-23T09:13:50.000Z,4013
2023-04-23T09:15:04.000Z,3506
2023-04-23T09:16:19.000Z,3520
2023-04-23T09:17:33.000Z,6418
2023-04-23T09:18:48.000Z,8196
2023-04-23T09:20:02.000Z,6756
2023-04-23T09:21:17.000Z,6188
2023-04-23T09:22:30.000Z,5119
2023-04-23T09:23:44.000Z,5019
2023-04-23T09:24:59.000Z,5255
2023-04-23T09:26:13.000Z,5882
2023-04-23T09:27:28.000Z,7748
2023-04-23T09:28:42.000Z,8205
2023-04-23T09:29:57.000Z,8124
2023-04-23T09:31:11.000Z,8034
2023-04-23T09:32:25.000Z,6740
2023-04-23T09:33:40.000Z,7204
2023-04-23T09:34:54.000Z,7407
2023-04-23T09:36:09.109Z,7891
2023-04-23T09:37:23.000Z,8618
2023-04-23T09:38:37.000Z,9317
2023-04-23T09:39:52.000Z,8595
2023-04-23T09:41:06.000Z,7764
2023-04-23T09:42:21.000Z,7752
2023-04-23T09:43:35.000Z,8148
2023-04-23T09:44:50.000Z,8253
2023-04-23T09:46:04.000Z,8646
2023-04-23T09:47:18.000Z,9038
2023-04-23T09:48:33.000Z,9114
2023-04-23T09:49:47.000Z,10360
2023-04-23T09:51:02.000Z,9897
2023-04-23T09:52:16.608Z,10021
2023-04-23T09:53:31.000Z,11036
2023-04-23T09:54:45.000Z,10155
2023-04-23T09:55:59.000Z,10562
2023-04-23T09:57:13.000Z,10540
2023-04-23T09:58:27.000Z,8561
2023-04-23T09:59:42.000Z,7448
2023-04-23T10:00:56.000Z,8392
2023-04-23T10:02:11.000Z,8993
2023-04-23T10:03:25.000Z,6173
2023-04-23T10:04:39.000Z,9594
2023-04-23T10:05:54.000Z,8653
2023-04-23T10:07:08.000Z,8628
2023-04-23T10:08:23.000Z,8152
2023-04-23T10:09:37.000Z,8723
2023-04-23T10:10:51.926Z,6896
2023-04-23T10:12:06.000Z,6493
2023-04-23T10:13:20.000Z,5215
2023-04-23T10:14:35.000Z,7747
2023-04-23T10:15:48.000Z,7047
2023-04-23T10:17:02.000Z,7436
2023-04-23T10:18:16.000Z,5233
2023-04-23T10:19:31.000Z,6084
2023-04-23T10:20:45.000Z,7825
2023-04-23T10:21:59.000Z,6085
2023-04-23T10:23:14.000Z,7358
2023-04-23T10:24:28.000Z,6291
2023-04-23T10:25:43.000Z,6863
2023-04-23T10:26:57.560Z,6667
2023-04-23T10:28:11.000Z,7086
2023-04-23T10:29:26.000Z,7197
2023-04-23T10:30:40.792Z,7043
2023-04-23T10:31:55.000Z,7460
2023-04-23T10:33:08.000Z,7113
2023-04-23T10:35:37.000Z,6132
2023-04-23T10:36:51.000Z,6347
2023-04-23T10:38:06.000Z,7576
2023-04-23T10:39:20.000Z,7631
2023-04-23T10:40:35.000Z,7370
2023-04-23T10:41:49.000Z,7169
2023-04-23T10:43:04.000Z,7677
2023-04-23T10:44:18.000Z,7661
2023-04-23T10:45:32.000Z,7648
2023-04-23T10:46:46.431Z,7459
2023-04-23T10:47:59.981Z,7399
2023-04-23T10:49:14.000Z,7343
2023-04-23T10:50:28.000Z,7101
2023-04-23T10:51:43.000Z,6802
2023-04-23T10:52:57.000Z,7122
2023-04-23T10:54:12.000Z,7250
2023-04-23T10:55:26.000Z,6897
2023-04-23T10:57:55.000Z,6224
2023-04-23T10:59:09.000Z,6425
2023-04-23T11:00:24.000Z,6664
2023-04-23T11:01:38.000Z,6313
2023-04-23T11:02:53.000Z,5759
2023-04-23T11:04:07.476Z,6265
2023-04-23T11:05:21.000Z,6400
2023-04-23T11:06:36.000Z,6540
2023-04-23T11:07:50.703Z,5782
2023-04-23T11:09:05.000Z,5347
2023-04-23T11:10:19.000Z,5280
2023-04-23T11:12:48.000Z,4774
2023-04-23T11:14:02.000Z,5603
2023-04-23T11:15:16.301Z,5443
2023-04-23T11:16:30.000Z,4964
2023-04-23T11:17:45.128Z,6440
2023-04-23T11:18:59.000Z,5622
2023-04-23T11:20:13.000Z,5997
2023-04-23T11:21:28.000Z,5998
2023-04-23T11:22:42.000Z,5319
2023-04-23T11:23:57.000Z,4873
2023-04-23T11:25:11.000Z,5886
2023-04-23T11:26:26.028Z,5971
2023-04-23T11:27:40.445Z,5130
2023-04-23T11:28:54.000Z,4842
2023-04-23T11:30:09.000Z,4573
2023-04-23T11:31:23.682Z,5200
2023-04-23T11:32:37.209Z,5976
2023-04-23T11:33:51.000Z,5729
2023-04-23T11:35:06.000Z,4859
2023-04-23T11:36:20.000Z,4397
2023-04-23T11:37:34.873Z,4431
2023-04-23T11:38:49.000Z,5279
2023-04-23T11:40:03.000Z,4832
2023-04-23T11:41:18.105Z,4232
2023-04-23T11:42:32.000Z,3688
2023-04-23T11:43:46.000Z,3963
2023-04-23T11:45:01.000Z,4909
2023-04-23T11:46:15.744Z,5219
2023-04-23T11:47:30.000Z,5013
2023-04-23T11:48:44.000Z,5023
2023-04-23T11:49:58.000Z,4928
2023-04-23T11:51:13.401Z,4552
2023-04-23T11:53:41.000Z,4134
2023-04-23T11:54:55.768Z,4184
2023-04-23T11:56:10.174Z,4921
2023-04-23T11:57:24.000Z,4565
2023-04-23T11:58:39.002Z,3869
2023-04-23T11:59:53.000Z,3901
2023-04-23T12:01:07.000Z,4484
2023-04-23T12:02:22.000Z,4841
2023-04-23T12:03:36.000Z,4423
2023-04-23T12:04:51.000Z,4798
2023-04-23T12:06:05.000Z,4496
2023-04-23T12:07:19.000Z,3601
2023-04-23T12:08:34.000Z,3547
2023-04-23T12:09:48.000Z,3280
2023-04-23T12:12:16.000Z,4203
2023-04-23T12:13:31.075Z,3734
2023-04-23T12:14:45.000Z,3168
2023-04-23T12:15:59.000Z,3178
2023-04-23T12:17:14.000Z,3419
2023-04-23T12:18:28.000Z,3977
2023-04-23T12:19:43.000Z,3885
2023-04-23T12:20:57.564Z,3746
2023-04-23T12:22:11.000Z,3397
2023-04-23T12:23:26.000Z,3243
2023-04-23T12:24:40.800Z,3579
2023-04-23T12:25:55.000Z,3279
2023-04-23T12:27:09.000Z,3423
2023-04-23T12:28:24.000Z,3289
2023-04-23T12:29:38.000Z,3058
2023-04-23T12:30:51.988Z,2928
2023-04-23T12:32:06.401Z,2851
2023-04-23T12:33:20.000Z,2843
2023-04-23T12:34:35.000Z,2921
2023-04-23T12:35:49.632Z,2666
2023-04-23T12:37:04.000Z,3468
2023-04-23T12:38:18.000Z,3737
2023-04-23T12:39:32.000Z,2974
2023-04-23T12:40:47.000Z,3835
2023-04-23T12:42:01.000Z,3727
2023-04-23T12:43:16.000Z,3267
2023-04-23T12:44:30.000Z,2981
2023-04-23T12:45:44.000Z,2888
2023-04-23T12:46:59.000Z,2825
2023-04-23T12:48:13.000Z,2784
2023-04-23T12:49:27.000Z,2706
2023-04-23T12:50:41.000Z,2624
2023-04-23T12:51:56.000Z,2579
2023-04-23T12:53:10.000Z,2573
2023-04-23T12:54:24.000Z,2575
2023-04-23T12:55:39.000Z,2539
2023-04-23T12:56:53.000Z,2516
2023-04-23T12:58:08.000Z,2497
2023-04-23T12:59:22.623Z,2490
2023-04-23T13:00:36.992Z,2501
2023-04-23T13:01:51.000Z,2489
2023-04-23T13:04:20.000Z,2377
2023-04-23T13:05:34.000Z,2324
2023-04-23T13:06:49.000Z,2319
2023-04-23T13:08:03.000Z,2328
2023-04-23T13:09:17.000Z,2330
2023-04-23T13:10:31.473Z,2315
2023-04-23T13:11:45.000Z,2294
2023-04-23T13:12:59.000Z,2290
2023-04-23T13:14:13.844Z,2305
2023-04-23T13:15:28.245Z,2315
2023-04-23T13:16:42.000Z,2309
2023-04-23T13:17:57.000Z,2274
2023-04-23T13:19:11.000Z,2217
2023-04-23T13:20:25.899Z,2188
2023-04-23T13:21:40.000Z,2185
2023-04-23T13:22:54.720Z,2190
2023-04-23T13:24:09.000Z,2182
2023-04-23T13:25:23.000Z,2163
2023-04-23T13:26:37.000Z,2153
2023-04-23T13:27:52.380Z,2152
2023-04-23T13:29:06.000Z,2147
2023-04-23T13:30:20.000Z,2137
2023-04-23T13:31:34.734Z,2131
2023-04-23T13:32:49.148Z,2129
2023-04-23T13:34:03.000Z,2125
2023-04-23T13:35:17.000Z,2122
2023-04-23T13:36:31.000Z,2142
2023-04-23T13:37:45.000Z,2170
2023-04-23T13:38:59.000Z,2194
2023-04-23T13:40:13.000Z,2226
2023-04-23T13:41:28.000Z,2226
2023-04-23T13:42:42.000Z,2178
2023-04-23T13:43:57.000Z,2150
2023-04-23T13:45:11.000Z,2139
2023-04-23T13:46:25.000Z,2130
2023-04-23T13:47:40.000Z,2127
2023-04-23T13:48:54.000Z,2122
2023-04-23T13:50:09.194Z,2106
2023-04-23T13:51:23.610Z,2098
2023-04-23T13:52:38.000Z,2095
2023-04-23T13:53:52.000Z,2094
2023-04-23T13:55:05.980Z,2094
2023-04-23T13:56:20.000Z,2088
2023-04-23T13:57:34.000Z,2097
2023-04-23T13:58:49.000Z,2122
2023-04-23T14:00:03.000Z,2131
2023-04-23T14:01:18.000Z,2132
2023-04-23T14:02:32.000Z,2161
2023-04-23T14:03:46.861Z,2178
2023-04-23T14:05:01.000Z,2183
2023-04-23T14:06:15.000Z,2176
2023-04-23T14:07:30.000Z,2169
2023-04-23T14:08:44.000Z,1995
2023-04-23T14:09:58.000Z,2021
2023-04-23T14:11:12.468Z,2122
2023-04-23T14:12:26.877Z,2118
2023-04-23T14:13:41.284Z,2112
2023-04-23T14:14:55.000Z,2118
2023-04-23T14:16:10.000Z,2129
2023-04-23T14:17:24.000Z,2133
2023-04-23T14:18:38.000Z,2126
2023-04-23T14:19:53.000Z,2105
2023-04-23T14:21:07.770Z,2085
2023-04-23T14:22:22.000Z,2077
2023-04-23T14:23:36.000Z,2073
2023-04-23T14:24:51.015Z,2062
2023-04-23T14:26:05.436Z,2049
2023-04-23T14:27:19.000Z,2044
2023-04-23T14:28:34.000Z,2033
2023-04-23T14:29:48.671Z,2024
2023-04-23T14:31:02.000Z,2027
2023-04-23T14:32:16.000Z,2024
2023-04-23T14:33:31.000Z,2005
2023-04-23T14:34:45.000Z,1994
2023-04-23T14:35:59.000Z,1984
2023-04-23T14:37:14.000Z,1974
2023-04-23T14:38:28.000Z,1971
2023-04-23T14:39:43.000Z,1957
2023-04-23T14:40:57.000Z,1931
2023-04-23T14:42:11.000Z,1935
2023-04-23T14:43:26.000Z,1930
2023-04-23T14:44:40.000Z,1939
2023-04-23T14:45:55.000Z,1951
2023-04-23T14:47:09.000Z,1963
2023-04-23T14:48:23.000Z,1965
2023-04-23T14:49:37.000Z,1983
2023-04-23T14:50:51.000Z,2008
2023-04-23T14:52:06.000Z,2022
2023-04-23T14:53:20.000Z,2027
2023-04-23T14:54:35.000Z,2033
2023-04-23T14:55:49.000Z,2043
2023-04-23T14:57:03.000Z,2061
2023-04-23T14:58:18.417Z,2077
2023-04-23T14:59:32.000Z,2079
2023-04-23T15:00:47.000Z,2090
2023-04-23T15:02:01.000Z,2111
2023-04-23T15:03:16.000Z,2016
2023-04-23T15:04:29.000Z,1930
2023-04-23T15:05:44.019Z,1946
2023-04-23T15:06:58.000Z,1969
2023-04-23T15:08:12.000Z,1981
2023-04-23T15:09:27.000Z,2004
2023-04-23T15:10:41.000Z,2021
2023-04-23T15:11:56.000Z,2009
2023-04-23T15:13:10.502Z,1984
2023-04-23T15:14:24.000Z,1990
2023-04-23T15:15:39.000Z,2004
2023-04-23T15:16:53.000Z,1987
2023-04-23T15:18:08.000Z,1949
2023-04-23T15:19:22.000Z,1910
2023-04-23T15:20:36.000Z,1898
2023-04-23T15:21:50.502Z,1904
2023-04-23T15:23:04.000Z,1897
2023-04-23T15:24:19.000Z,1898
2023-04-23T15:25:33.000Z,1944
2023-04-23T15:26:48.000Z,1985
2023-04-23T15:28:02.000Z,2038
2023-04-23T15:29:16.000Z,2119
2023-04-23T15:30:31.000Z,2139
2023-04-23T15:31:45.000Z,2118
2023-04-23T15:33:00.000Z,2121
2023-04-23T15:34:14.000Z,2153
2023-04-23T15:35:29.000Z,2132
2023-04-23T15:36:43.000Z,2166
2023-04-23T15:37:57.881Z,2275
2023-04-23T15:39:11.000Z,2400
2023-04-23T15:40:25.836Z,2404
2023-04-23T15:41:40.000Z,2374
2023-04-23T15:42:54.000Z,2473
2023-04-23T15:44:09.000Z,2534
2023-04-23T15:45:23.000Z,2551
2023-04-23T15:46:37.901Z,2545
2023-04-23T15:47:52.000Z,2587
2023-04-23T15:49:06.000Z,2552
2023-04-23T15:50:21.132Z,2546
2023-04-23T15:51:35.000Z,2569
2023-04-23T15:52:49.968Z,2550
2023-04-23T15:54:04.000Z,2540
2023-04-23T15:55:18.000Z,2540
2023-04-23T15:56:33.000Z,2517
2023-04-23T15:57:46.000Z,2459
2023-04-23T15:59:01.000Z,2575
2023-04-23T16:00:15.570Z,2595
2023-04-23T16:01:29.000Z,2747
2023-04-23T16:02:44.000Z,2767
2023-04-23T16:03:58.000Z,2814
2023-04-23T16:05:13.000Z,2796
2023-04-23T16:06:27.000Z,2832
2023-04-23T16:07:42.000Z,2847
2023-04-23T16:08:56.000Z,2806
2023-04-23T16:10:10.000Z,2792
2023-04-23T16:11:25.000Z,2772
2023-04-23T16:12:39.000Z,2744
2023-04-23T16:13:54.000Z,2644
2023-04-23T16:15:08.000Z,2610
2023-04-23T16:16:22.000Z,2552
2023-04-23T16:17:37.000Z,2537
2023-04-23T16:18:50.000Z,2414
2023-04-23T16:21:19.705Z,2280
2023-04-23T16:22:34.000Z,2236
2023-04-23T16:23:48.000Z,2167
2023-04-23T16:25:02.959Z,2141
2023-04-23T16:26:17.000Z,2156
2023-04-23T16:27:31.000Z,2097
2023-04-23T16:28:46.000Z,2022
2023-04-23T16:30:00.000Z,2038
2023-04-23T16:31:14.000Z,2037
2023-04-23T16:32:29.000Z,2035
2023-04-23T16:33:43.845Z,2004
2023-04-23T16:34:58.255Z,1979
2023-04-23T16:36:12.000Z,1936
2023-04-23T16:37:27.073Z,1943
2023-04-23T16:38:41.000Z,2005
2023-04-23T16:39:55.916Z,2035
2023-04-23T16:41:10.000Z,2046
2023-04-23T16:42:23.000Z,2064
2023-04-23T16:43:38.000Z,2068
2023-04-23T16:46:07.000Z,2009
2023-04-23T16:47:21.000Z,1962
2023-04-23T16:48:35.000Z,1914
2023-04-23T16:49:50.332Z,1869
2023-04-23T16:51:04.000Z,1821
2023-04-23T16:52:19.000Z,1777
2023-04-23T16:53:33.000Z,1737
2023-04-23T16:54:47.000Z,1702
2023-04-23T16:56:02.000Z,1666
2023-04-23T16:57:16.000Z,1629
2023-04-23T16:58:31.000Z,1601
2023-04-23T16:59:45.645Z,1572
2023-04-23T17:02:14.000Z,1511
2023-04-23T17:03:28.000Z,1467
2023-04-23T17:04:43.301Z,1428
2023-04-23T17:05:57.000Z,1401
2023-04-23T17:07:12.000Z,1386
2023-04-23T17:08:26.521Z,1368
2023-04-23T17:09:40.948Z,1348
2023-04-23T17:10:55.000Z,1323
2023-04-23T17:12:08.000Z,1304
2023-04-23T17:13:23.300Z,1274
2023-04-23T17:14:37.000Z,1231
2023-04-23T17:15:52.000Z,1185
2023-04-23T17:17:06.000Z,1149
2023-04-23T17:18:20.000Z,1128
2023-04-23T17:19:35.000Z,1109
2023-04-23T17:20:49.000Z,1091
2023-04-23T17:22:04.000Z,1068
2023-04-23T17:23:18.000Z,1041
2023-04-23T17:24:35.000Z,1014
2023-04-23T17:25:47.000Z,987
2023-04-23T17:27:01.842Z,969
2023-04-23T17:28:16.000Z,951
2023-04-23T17:29:30.670Z,930
2023-04-23T17:30:45.000Z,902
2023-04-23T17:31:58.000Z,874
2023-04-23T17:33:13.000Z,853
2023-04-23T17:34:27.445Z,825
2023-04-23T17:35:41.000Z,799
2023-04-23T17:36:56.000Z,770